createdAt,value
2022-11-21T02:44:20.043Z,99956.00
2022-11-21T02:46:51.510Z,99967.00
2022-11-21T02:49:30.876Z,99960.00
2022-11-21T02:51:57.623Z,99961.00
2022-11-21T02:54:24.596Z,99958.00
2022-11-21T02:56:51.400Z,99954.00
2022-11-21T02:59:18.101Z,99944.00
2022-11-21T03:01:44.802Z,99943.00
2022-11-21T03:04:11.499Z,99932.00
2022-11-21T03:06:38.339Z,99951.00
2022-11-21T03:09:05.097Z,99961.00
2022-11-21T03:11:31.795Z,99942.00
2022-11-21T03:13:58.443Z,99952.00
2022-11-21T03:16:25.136Z,99948.00
2022-11-21T03:18:52.139Z,99936.00
2022-11-21T03:21:18.811Z,99935.00
2022-11-21T03:23:45.515Z,99932.00
2022-11-21T03:26:12.191Z,99922.00
2022-11-21T03:28:38.868Z,99933.00
2022-11-21T03:31:05.535Z,99929.00
2022-11-21T03:33:32.231Z,99925.00
2022-11-21T03:35:58.901Z,99924.00
2022-11-21T03:38:25.561Z,99925.00
2022-11-21T03:40:52.247Z,99922.00
2022-11-21T03:43:19.028Z,99931.00
2022-11-21T03:45:47.843Z,99934.00
2022-11-21T03:48:15.335Z,99939.00
2022-11-21T03:50:43.699Z,99942.00
2022-11-21T03:53:10.918Z,99929.00
2022-11-21T03:55:37.587Z,99944.00
2022-11-21T03:58:04.302Z,99945.00
2022-11-21T04:00:31.056Z,99940.00
2022-11-21T04:02:57.758Z,99959.00
2022-11-21T04:05:24.424Z,99955.00
2022-11-21T04:07:51.198Z,99955.00
2022-11-21T04:10:17.945Z,99948.00
2022-11-21T04:12:44.599Z,99952.00
2022-11-21T04:15:13.917Z,99968.00
2022-11-21T04:17:40.895Z,99958.00
2022-11-21T04:20:08.004Z,99959.00
2022-11-21T04:22:34.660Z,99955.00
2022-11-21T04:25:01.340Z,99948.00
2022-11-21T04:27:28.001Z,99961.00
2022-11-21T04:29:54.652Z,99969.00
2022-11-21T04:32:21.317Z,99965.00
2022-11-21T04:34:47.957Z,99966.00
2022-11-21T04:37:14.845Z,99953.00
2022-11-21T04:39:41.603Z,99958.00
2022-11-21T04:42:08.406Z,99956.00
2022-11-21T04:44:35.076Z,99966.00
2022-11-21T04:47:05.346Z,99961.00
2022-11-21T04:49:32.582Z,99964.00
2022-11-21T04:51:59.249Z,99965.00
2022-11-21T04:54:26.254Z,99969.00
2022-11-21T04:56:53.115Z,99964.00
2022-11-21T04:59:28.561Z,99958.00
2022-11-21T05:01:55.218Z,99958.00
2022-11-21T05:04:21.881Z,99952.00
2022-11-21T05:06:48.556Z,99959.00
2022-11-21T05:09:15.249Z,99964.00
2022-11-21T05:12:00.627Z,99964.00
2022-11-21T05:14:27.463Z,99951.00
2022-11-21T05:16:54.329Z,99949.00
2022-11-21T05:19:21.061Z,99946.00
2022-11-21T05:21:47.841Z,99941.00
2022-11-21T05:24:14.560Z,99940.00
2022-11-21T05:26:41.351Z,99953.00
2022-11-21T05:29:08.102Z,99953.00
2022-11-21T05:31:34.803Z,99947.00
2022-11-21T05:34:01.488Z,99949.00
2022-11-21T05:36:28.167Z,99943.00
2022-11-21T05:38:54.968Z,99954.00
2022-11-21T05:41:21.701Z,99947.00
2022-11-21T05:43:49.027Z,99955.00
2022-11-21T05:46:21.544Z,99945.00
2022-11-21T05:48:49.277Z,99945.00
2022-11-21T05:51:16.707Z,99931.00
2022-11-21T05:53:43.777Z,99929.00
2022-11-21T05:56:13.312Z,99938.00
2022-11-21T05:58:40.463Z,99942.00
2022-11-21T06:01:08.690Z,99947.00
2022-11-21T06:03:38.157Z,99944.00
2022-11-21T06:06:07.678Z,99944.00
2022-11-21T06:08:42.775Z,99949.00
2022-11-21T06:11:11.708Z,99945.00
2022-11-21T06:13:38.902Z,99949.00
2022-11-21T06:16:08.651Z,99944.00
2022-11-21T06:18:37.712Z,99941.00
2022-11-21T06:21:17.663Z,99935.00
2022-11-21T06:23:45.018Z,99944.00
2022-11-21T06:26:13.668Z,99941.00
2022-11-21T06:28:41.526Z,99936.00
2022-11-21T06:31:16.062Z,99929.00
2022-11-21T06:33:43.649Z,99944.00
2022-11-21T06:36:15.244Z,99931.00
2022-11-21T06:38:43.167Z,99931.00
2022-11-21T06:41:18.301Z,99943.00
2022-11-21T06:43:45.793Z,99926.00
2022-11-21T06:46:13.279Z,99933.00
2022-11-21T06:48:40.495Z,99926.00
2022-11-21T06:51:18.322Z,99938.00
2022-11-21T06:53:45.673Z,99932.00
2022-11-21T06:56:12.388Z,99929.00
2022-11-21T06:58:39.141Z,99931.00
2022-11-21T07:01:10.481Z,99923.00
2022-11-21T07:03:37.370Z,99929.00
2022-11-21T07:06:05.314Z,99927.00
2022-11-21T07:08:38.266Z,99923.00
2022-11-21T07:11:24.507Z,99924.00
2022-11-21T07:13:52.289Z,99931.00
2022-11-21T07:16:19.043Z,99939.00
2022-11-21T07:18:45.769Z,99917.00
2022-11-21T07:21:12.598Z,99930.00
2022-11-21T07:23:39.663Z,99919.00
2022-11-21T07:26:07.674Z,99919.00
2022-11-21T07:28:34.463Z,99912.00
2022-11-21T07:31:07.008Z,99932.00
2022-11-21T07:33:39.961Z,99925.00
2022-11-21T07:36:07.353Z,99936.00
2022-11-21T07:38:34.214Z,99932.00
2022-11-21T07:41:01.063Z,99929.00
2022-11-21T07:43:27.745Z,99936.00
2022-11-21T07:45:54.455Z,99930.00
2022-11-21T07:48:21.276Z,99924.00
2022-11-21T07:50:48.109Z,99931.00
2022-11-21T07:53:14.867Z,99939.00
2022-11-21T07:55:41.705Z,99931.00
2022-11-21T07:58:12.020Z,99931.00
2022-11-21T08:00:42.984Z,99926.00
2022-11-21T08:03:12.262Z,99929.00
2022-11-21T08:05:42.564Z,99912.00
2022-11-21T08:08:10.910Z,99905.00
2022-11-21T08:10:42.161Z,99901.00
2022-11-21T08:13:08.920Z,99908.00
2022-11-21T08:15:36.427Z,99899.00
2022-11-21T08:18:21.110Z,99913.00
2022-11-21T08:20:47.903Z,99908.00
2022-11-21T08:23:14.728Z,99907.00
2022-11-21T08:25:42.257Z,99916.00
2022-11-21T08:28:10.521Z,99919.00
2022-11-21T08:30:39.385Z,99935.00
2022-11-21T08:33:07.023Z,99935.00
2022-11-21T08:35:36.409Z,99927.00
2022-11-21T08:38:03.143Z,99933.00
2022-11-21T08:40:31.274Z,99920.00
2022-11-21T08:43:07.879Z,99931.00
2022-11-21T08:45:35.875Z,99934.00
2022-11-21T08:48:03.033Z,99941.00
2022-11-21T08:50:29.898Z,99943.00
2022-11-21T08:53:01.518Z,99946.00
2022-11-21T08:55:28.884Z,99954.00
2022-11-21T08:57:55.702Z,99949.00
2022-11-21T09:00:22.852Z,99944.00
2022-11-21T09:02:49.595Z,99949.00
2022-11-21T09:05:16.431Z,99956.00
2022-11-21T09:07:43.764Z,99946.00
2022-11-21T09:10:10.658Z,99946.00
2022-11-21T09:12:37.441Z,99948.00
2022-11-21T09:15:23.483Z,99954.00
2022-11-21T09:18:05.448Z,99957.00
2022-11-21T09:20:40.810Z,99957.00
2022-11-21T09:23:09.800Z,99960.00
2022-11-21T09:25:36.930Z,99963.00
2022-11-21T09:28:05.294Z,99951.00
2022-11-21T09:30:32.159Z,99949.00
2022-11-21T09:33:07.545Z,99942.00
2022-11-21T09:35:34.526Z,99956.00
2022-11-21T09:38:01.430Z,99968.00
2022-11-21T09:40:32.568Z,99963.00
2022-11-21T09:43:05.364Z,99962.00
2022-11-21T09:45:44.633Z,99972.00
2022-11-21T09:48:14.310Z,99968.00
2022-11-21T09:50:54.403Z,99966.00
2022-11-21T09:53:24.285Z,99972.00
2022-11-21T09:56:00.107Z,99970.00
2022-11-21T09:58:40.575Z,99981.00
2022-11-21T10:01:12.515Z,99968.00
2022-11-21T10:03:57.508Z,99990.00
2022-11-21T10:06:26.620Z,99968.00
2022-11-21T10:09:18.704Z,99969.00
2022-11-21T10:12:07.820Z,99953.00
2022-11-21T10:14:45.328Z,99951.00
2022-11-21T10:17:18.632Z,99956.00
2022-11-21T10:20:07.679Z,99951.00
2022-11-21T10:22:49.236Z,99964.00
2022-11-21T10:25:27.223Z,99945.00
2022-11-21T10:28:02.315Z,99950.00
2022-11-21T10:30:29.841Z,99939.00
2022-11-21T10:33:04.490Z,99933.00
2022-11-21T10:35:49.087Z,99933.00
2022-11-21T10:38:26.500Z,99928.00
2022-11-21T10:41:06.810Z,99917.00
2022-11-21T10:44:21.498Z,99924.00
2022-11-21T10:46:58.908Z,99922.00
2022-11-21T10:49:26.831Z,99925.00
2022-11-21T10:52:19.392Z,99927.00
2022-11-21T10:55:04.540Z,99914.00
2022-11-21T10:57:41.618Z,99911.00
2022-11-21T11:00:11.447Z,99921.00
2022-11-21T11:02:43.054Z,99908.00
2022-11-21T11:05:15.877Z,99939.00
2022-11-21T11:07:43.046Z,99929.00
2022-11-21T11:10:26.904Z,99915.00
2022-11-21T11:13:38.680Z,99915.00
2022-11-21T11:16:12.012Z,99928.00
2022-11-21T11:18:47.145Z,99927.00
2022-11-21T11:21:24.869Z,99923.00
2022-11-21T11:23:53.387Z,99933.00
2022-11-21T11:26:31.260Z,99927.00
2022-11-21T11:29:14.594Z,99941.00
2022-11-21T11:31:45.985Z,99923.00
2022-11-21T11:34:15.117Z,99945.00
2022-11-21T11:37:10.237Z,99943.00
2022-11-21T11:39:43.319Z,99940.00
2022-11-21T11:42:41.401Z,99935.00
2022-11-21T11:45:33.036Z,99937.00
2022-11-21T11:48:12.040Z,99930.00
2022-11-21T11:50:44.989Z,99921.00
2022-11-21T11:53:13.809Z,99914.00
2022-11-21T11:55:53.216Z,99922.00
2022-11-21T11:58:30.252Z,99941.00
2022-11-21T12:01:09.306Z,99915.00
2022-11-21T12:04:00.557Z,99935.00
2022-11-21T12:07:18.068Z,99914.00
2022-11-21T12:09:30.017Z,99912.00
2022-11-21T12:12:10.180Z,99931.00
2022-11-21T12:15:02.070Z,99940.00
2022-11-21T12:17:51.540Z,99918.00
2022-11-21T12:20:40.300Z,99905.00
2022-11-21T12:23:07.450Z,99926.00
2022-11-21T12:25:40.803Z,99898.00
2022-11-21T12:28:19.214Z,99887.00
2022-11-21T12:31:06.410Z,99886.00
2022-11-21T12:33:40.145Z,99885.00
2022-11-21T12:36:19.546Z,99882.00
2022-11-21T12:39:18.571Z,99874.00
2022-11-21T12:42:33.173Z,99890.00
2022-11-21T12:45:09.094Z,99872.00
2022-11-21T12:48:13.757Z,99863.00
2022-11-21T12:51:36.488Z,99867.00
2022-11-21T12:54:32.085Z,99869.00
2022-11-21T12:57:10.431Z,99849.00
2022-11-21T12:59:57.369Z,99853.00
2022-11-21T13:02:51.038Z,99839.00
2022-11-21T13:05:25.197Z,99830.00
2022-11-21T13:08:02.499Z,99841.00
2022-11-21T13:10:30.046Z,99830.00
2022-11-21T13:13:16.683Z,99841.00
2022-11-21T13:27:39.092Z,99798.00
2022-11-21T13:30:09.391Z,99797.00
2022-11-21T13:32:56.679Z,99781.00
2022-11-21T13:35:23.432Z,99784.00
2022-11-21T13:37:50.165Z,99783.00
2022-11-21T13:40:32.182Z,99776.00
2022-11-21T13:43:32.535Z,99790.00
2022-11-21T13:46:00.924Z,99774.00
2022-11-21T13:48:30.801Z,99770.00
2022-11-21T13:51:22.354Z,99774.00
2022-11-21T13:54:24.842Z,99758.00
2022-11-21T13:57:01.766Z,99751.00
2022-11-21T14:00:03.321Z,99746.00
2022-11-21T14:02:51.989Z,99755.00
2022-11-21T14:06:17.707Z,99752.00
2022-11-21T14:09:35.662Z,99761.00
2022-11-21T14:12:34.582Z,99766.00
2022-11-21T14:15:02.872Z,99762.00
2022-11-21T14:17:59.990Z,99766.00
2022-11-21T14:20:33.755Z,99754.00
2022-11-21T14:23:00.680Z,99763.00
2022-11-21T14:25:36.007Z,99763.00
2022-11-21T14:28:05.986Z,99762.00
2022-11-21T14:30:35.863Z,99755.00
2022-11-21T14:33:24.824Z,99758.00
2022-11-21T14:36:03.553Z,99758.00
2022-11-21T14:39:34.861Z,99754.00
2022-11-21T14:41:55.482Z,99753.00
2022-11-21T14:44:23.202Z,99762.00
2022-11-21T14:47:28.140Z,99764.00
2022-11-21T14:49:56.976Z,99744.00
2022-11-21T14:52:29.054Z,99736.00
2022-11-21T14:57:52.793Z,99736.00
2022-11-21T15:00:58.608Z,99741.00
2022-11-21T15:03:25.496Z,99732.00
2022-11-21T15:06:04.538Z,99733.00
2022-11-21T15:11:22.583Z,99732.00
2022-11-21T15:14:14.248Z,99726.00
2022-11-21T15:16:39.340Z,99717.00
2022-11-21T15:19:12.305Z,99717.00
2022-11-21T15:21:46.483Z,99710.00
2022-11-21T15:24:18.578Z,99720.00
2022-11-21T15:26:45.597Z,99717.00
2022-11-21T15:29:23.450Z,99715.00
2022-11-21T15:32:13.978Z,99702.00
2022-11-21T15:34:41.092Z,99714.00
2022-11-21T15:37:18.261Z,99692.00
2022-11-21T15:39:50.121Z,99698.00
2022-11-21T15:42:36.925Z,99710.00
2022-11-21T15:45:20.104Z,99708.00
2022-11-21T15:47:48.248Z,99714.00
2022-11-21T15:50:16.320Z,99708.00
2022-11-21T15:52:48.397Z,99702.00
2022-11-21T15:55:22.382Z,99699.00
2022-11-21T15:57:49.241Z,99694.00
2022-11-21T16:00:17.306Z,99704.00
2022-11-21T16:02:44.180Z,99710.00
2022-11-21T16:05:15.613Z,99703.00
2022-11-21T16:07:44.974Z,99711.00
2022-11-21T16:10:19.949Z,99716.00
2022-11-21T16:12:51.040Z,99709.00
2022-11-21T16:15:17.857Z,99701.00
2022-11-21T16:17:45.805Z,99707.00
2022-11-21T16:20:14.250Z,99705.00
2022-11-21T16:22:45.880Z,99705.00
2022-11-21T16:25:14.223Z,99703.00
2022-11-21T16:27:41.067Z,99693.00
2022-11-21T16:30:08.134Z,99695.00
2022-11-21T16:32:34.949Z,99677.00
2022-11-21T16:35:01.686Z,99665.00
2022-11-21T16:37:30.823Z,99661.00
2022-11-21T16:39:57.780Z,99656.00
2022-11-21T16:42:25.313Z,99642.00
2022-11-21T16:44:52.900Z,99640.00
2022-11-21T16:47:20.084Z,99644.00
2022-11-21T16:49:48.998Z,99646.00
2022-11-21T16:52:18.098Z,99635.00
2022-11-21T16:54:45.036Z,99638.00
2022-11-21T16:57:11.882Z,99637.00
2022-11-21T16:59:38.718Z,99652.00
2022-11-21T17:02:05.544Z,99646.00
2022-11-21T17:04:32.714Z,99654.00
2022-11-21T17:07:00.795Z,99648.00
2022-11-21T17:09:27.758Z,99640.00
2022-11-21T17:11:57.650Z,99644.00
2022-11-21T17:14:24.569Z,99630.00
2022-11-21T17:16:51.457Z,99625.00
2022-11-21T17:19:18.222Z,99631.00
2022-11-21T17:21:45.081Z,99640.00
2022-11-21T17:24:15.236Z,99628.00
2022-11-21T17:26:42.110Z,99630.00
2022-11-21T17:29:09.471Z,99650.00
2022-11-21T17:31:36.388Z,99636.00
2022-11-21T17:34:03.214Z,99642.00
2022-11-21T17:36:30.951Z,99646.00
2022-11-21T17:38:58.020Z,99639.00
2022-11-21T17:41:25.944Z,99654.00
2022-11-21T17:43:57.372Z,99656.00
2022-11-21T17:46:28.162Z,99644.00
2022-11-21T17:48:58.212Z,99649.00
2022-11-21T17:51:29.480Z,99648.00
2022-11-21T17:53:56.779Z,99647.00
2022-11-21T17:56:26.088Z,99654.00
2022-11-21T17:58:52.970Z,99657.00
2022-11-21T18:01:20.648Z,99659.00
2022-11-21T18:03:58.510Z,99672.00
2022-11-21T18:06:27.070Z,99654.00
2022-11-21T18:08:56.060Z,99660.00
2022-11-21T18:11:23.118Z,99663.00
2022-11-21T18:13:50.357Z,99653.00
2022-11-21T18:16:19.820Z,99643.00
2022-11-21T18:19:08.531Z,99653.00
2022-11-21T18:21:38.266Z,99641.00
2022-11-21T18:24:05.302Z,99648.00
2022-11-21T18:26:34.321Z,99638.00
2022-11-21T18:29:28.657Z,99646.00
2022-11-21T18:31:49.274Z,99658.00
2022-11-21T18:34:16.112Z,99650.00
2022-11-21T18:36:42.885Z,99651.00
2022-11-21T18:39:14.532Z,99650.00
2022-11-21T18:41:42.700Z,99654.00
2022-11-21T18:44:09.981Z,99656.00
2022-11-21T18:46:38.271Z,99654.00
2022-11-21T18:49:07.013Z,99646.00
2022-11-21T18:51:35.347Z,99640.00
2022-11-21T18:54:07.939Z,99635.00
2022-11-21T18:56:36.437Z,99643.00
2022-11-21T18:59:05.533Z,99635.00
2022-11-21T19:01:33.418Z,99644.00
2022-11-21T19:04:00.330Z,99648.00
2022-11-21T19:06:27.779Z,99643.00
2022-11-21T19:08:57.130Z,99656.00
2022-11-21T19:11:27.066Z,99636.00
2022-11-21T19:13:54.388Z,99639.00
2022-11-21T19:16:26.328Z,99630.00
2022-11-21T19:21:43.445Z,99631.00
2022-11-21T19:24:12.988Z,99625.00
2022-11-21T19:26:40.009Z,99629.00
2022-11-21T19:29:06.878Z,99625.00
2022-11-21T19:31:36.581Z,99627.00
2022-11-21T19:34:06.022Z,99625.00
2022-11-21T19:36:32.870Z,99627.00
2022-11-21T19:38:59.668Z,99633.00
2022-11-21T19:41:27.144Z,99638.00
2022-11-21T19:43:57.192Z,99604.00
2022-11-21T19:46:31.204Z,99614.00
2022-11-21T19:48:59.264Z,99623.00
2022-11-21T19:51:37.867Z,99612.00
2022-11-21T19:54:08.824Z,99595.00
2022-11-21T19:56:36.017Z,99602.00
2022-11-21T19:59:03.142Z,99608.00
2022-11-21T20:01:31.403Z,99597.00
2022-11-21T20:04:03.360Z,99595.00
2022-11-21T20:06:46.054Z,99584.00
2022-11-21T20:09:17.578Z,99576.00
2022-11-21T20:11:47.165Z,99576.00
2022-11-21T20:14:19.877Z,99579.00
2022-11-21T20:16:48.793Z,99582.00
2022-11-21T20:19:17.816Z,99574.00
2022-11-21T20:21:45.162Z,99556.00
2022-11-21T20:24:12.621Z,99562.00
2022-11-21T20:26:39.700Z,99562.00
2022-11-21T20:29:07.049Z,99565.00
2022-11-21T20:31:37.170Z,99553.00
2022-11-21T20:34:12.536Z,99550.00
2022-11-21T20:36:39.710Z,99572.00
2022-11-21T20:39:17.677Z,99570.00
2022-11-21T20:41:45.754Z,99572.00
2022-11-21T20:47:09.135Z,99585.00
2022-11-21T20:49:36.143Z,99590.00
2022-11-21T20:54:49.741Z,99606.00
2022-11-21T20:57:16.544Z,99608.00
2022-11-21T20:59:43.510Z,99612.00
2022-11-21T21:02:14.000Z,99621.00
2022-11-21T21:04:41.614Z,99613.00
2022-11-21T21:07:08.491Z,99631.00
2022-11-21T21:09:35.305Z,99616.00
2022-11-21T21:12:02.027Z,99620.00
2022-11-21T21:14:29.002Z,99631.00
2022-11-21T21:16:55.777Z,99620.00
2022-11-21T21:19:22.615Z,99631.00
2022-11-21T21:21:50.565Z,99625.00
2022-11-21T21:24:17.401Z,99618.00
2022-11-21T21:26:46.973Z,99620.00
2022-11-21T21:29:20.071Z,99621.00
2022-11-21T21:31:52.399Z,99620.00
2022-11-21T21:34:20.688Z,99626.00
2022-11-21T21:36:47.439Z,99626.00
2022-11-21T21:39:14.249Z,99627.00
2022-11-21T21:41:44.288Z,99639.00
2022-11-21T21:44:11.034Z,99640.00
2022-11-21T21:46:37.741Z,99633.00
2022-11-21T21:49:04.729Z,99635.00
2022-11-21T21:51:32.088Z,99641.00
2022-11-21T21:53:59.460Z,99632.00
2022-11-21T21:56:27.990Z,99637.00
2022-11-21T21:58:56.376Z,99617.00
2022-11-21T22:01:28.351Z,99638.00
2022-11-21T22:03:59.924Z,99610.00
2022-11-21T22:06:26.987Z,99627.00
2022-11-21T22:08:54.683Z,99611.00
2022-11-21T22:11:23.324Z,99606.00
2022-11-21T22:13:55.175Z,99616.00
2022-11-21T22:16:22.162Z,99601.00
2022-11-21T22:18:48.896Z,99615.00
2022-11-21T22:21:18.565Z,99610.00
2022-11-21T22:24:09.874Z,99602.00
2022-11-21T22:26:32.715Z,99606.00
2022-11-21T22:28:59.385Z,99610.00
2022-11-21T22:31:26.040Z,99610.00
2022-11-21T22:33:52.845Z,99604.00
2022-11-21T22:36:19.530Z,99597.00
2022-11-21T22:38:46.354Z,99598.00
2022-11-21T22:41:18.100Z,99605.00
2022-11-21T22:43:48.743Z,99579.00
2022-11-21T22:46:15.446Z,99596.00
2022-11-21T22:48:42.133Z,99606.00
2022-11-21T22:51:11.930Z,99607.00
2022-11-21T22:53:40.334Z,99596.00
2022-11-21T22:56:09.743Z,99598.00
2022-11-21T22:58:39.366Z,99592.00
2022-11-21T23:01:25.615Z,99599.00
2022-11-21T23:03:52.994Z,99597.00
2022-11-21T23:06:23.415Z,99600.00
2022-11-21T23:08:54.573Z,99601.00
2022-11-21T23:11:24.300Z,99595.00
2022-11-21T23:13:51.796Z,99589.00
2022-11-21T23:16:18.929Z,99598.00
2022-11-21T23:18:45.804Z,99591.00
2022-11-21T23:21:13.959Z,99598.00
2022-11-21T23:23:40.864Z,99584.00
2022-11-21T23:26:07.623Z,99578.00
2022-11-21T23:28:34.374Z,99584.00
2022-11-21T23:31:01.127Z,99574.00
2022-11-21T23:33:27.811Z,99578.00
2022-11-21T23:35:54.592Z,99590.00
2022-11-21T23:38:21.808Z,99593.00
2022-11-21T23:40:49.084Z,99594.00
2022-11-21T23:43:16.581Z,99597.00
2022-11-21T23:45:43.828Z,99598.00
2022-11-21T23:48:16.682Z,99577.00
2022-11-21T23:50:43.364Z,99578.00
2022-11-21T23:53:10.122Z,99592.00
2022-11-21T23:55:36.827Z,99600.00
2022-11-21T23:58:03.568Z,99592.00
